Time;durP1;ratioP1;P1;durP2;ratioP2;P2;SDS_P1;SDS_P2;PMS_P1;PMS_P2;Temp;Humidity;BMP_temperature;BMP_pressure;BME280_temperature;BME280_humidity;BME280_pressure;Samples;Min_cycle;Max_cycle;Signal;HPM_P1;HPM_P2
2021/07/21 00:04:36;;;;;;;14.87;9.03;;;;;;;;;;10239132;28;20212;-77
2021/07/21 00:09:38;;;;;;;14.47;7.90;;;;;;;;;;10250321;28;20204;-76
2021/07/21 00:14:41;;;;;;;16.63;8.80;;;;;;;;;;10248690;28;20905;-77
2021/07/21 00:25:06;;;;;;;14.90;8.67;;;;;;;;;;10247828;28;20231;-77
2021/07/21 00:30:10;;;;;;;15.07;8.67;;;;;;;;;;10233859;28;20199;-76
2021/07/21 00:35:15;;;;;;;15.17;8.20;;;;;;;;;;10247845;28;20299;-76
2021/07/21 00:40:18;;;;;;;16.87;8.73;;;;;;;;;;10242405;28;20202;-76
2021/07/21 00:45:21;;;;;;;17.13;9.50;;;;;;;;;;10236838;28;20320;-77
2021/07/21 00:50:25;;;;;;;16.87;8.97;;;;;;;;;;10239140;28;20232;-77
2021/07/21 00:55:28;;;;;;;17.10;8.80;;;;;;;;;;10250944;28;20751;-75
2021/07/21 01:00:30;;;;;;;15.67;8.73;;;;;;;;;;10242935;28;20351;-78
2021/07/21 01:05:41;;;;;;;16.00;10.17;;;;;;;;;;10238355;28;20283;-77
2021/07/21 01:10:45;;;;;;;19.10;10.00;;;;;;;;;;10238140;28;20227;-77
2021/07/21 01:15:51;;;;;;;17.77;9.30;;;;;;;;;;10240898;28;20241;-76
2021/07/21 01:21:09;;;;;;;15.87;9.53;;;;;;;;;;10250038;28;20200;-77
2021/07/21 01:26:12;;;;;;;18.20;9.57;;;;;;;;;;10252827;28;20221;-76
2021/07/21 01:31:19;;;;;;;17.73;10.30;;;;;;;;;;10251146;28;20192;-77
2021/07/21 01:36:23;;;;;;;17.17;10.00;;;;;;;;;;10249665;28;20228;-77
2021/07/21 01:41:28;;;;;;;17.33;9.87;;;;;;;;;;10253348;28;20569;-77
2021/07/21 01:46:32;;;;;;;19.80;10.27;;;;;;;;;;10247455;28;20208;-76
2021/07/21 01:51:35;;;;;;;18.57;9.77;;;;;;;;;;10253908;28;20340;-76
2021/07/21 01:56:38;;;;;;;18.63;9.40;;;;;;;;;;10244794;28;20301;-77
2021/07/21 02:01:42;;;;;;;19.57;10.43;;;;;;;;;;10243263;28;20292;-77
2021/07/21 02:06:46;;;;;;;19.13;9.73;;;;;;;;;;10242007;28;20219;-76
2021/07/21 02:11:48;;;;;;;20.30;10.97;;;;;;;;;;10242530;28;20209;-77
2021/07/21 02:16:53;;;;;;;20.40;10.30;;;;;;;;;;10251985;28;20220;-77
2021/07/21 02:21:56;;;;;;;18.37;10.97;;;;;;;;;;10243569;28;20274;-78
2021/07/21 02:26:59;;;;;;;18.00;10.03;;;;;;;;;;10241144;28;20779;-77
2021/07/21 02:32:06;;;;;;;17.23;10.07;;;;;;;;;;10244559;28;20231;-77
2021/07/21 02:37:09;;;;;;;19.33;10.53;;;;;;;;;;10248685;28;20242;-77
2021/07/21 02:42:12;;;;;;;17.47;10.63;;;;;;;;;;10251848;28;20224;-76
2021/07/21 02:47:16;;;;;;;20.57;10.80;;;;;;;;;;10243230;28;20203;-77
2021/07/21 02:52:21;;;;;;;19.10;11.13;;;;;;;;;;10239797;28;20589;-77
2021/07/21 02:57:28;;;;;;;18.03;9.97;;;;;;;;;;10251618;28;20672;-76
2021/07/21 03:02:33;;;;;;;18.73;10.57;;;;;;;;;;10263548;28;20421;-77
2021/07/21 03:07:37;;;;;;;19.67;11.27;;;;;;;;;;10258256;28;20203;-78
2021/07/21 03:12:41;;;;;;;18.70;10.70;;;;;;;;;;10246407;28;20308;-76
2021/07/21 03:17:46;;;;;;;19.13;10.53;;;;;;;;;;10249510;28;20262;-77
2021/07/21 03:22:51;;;;;;;17.30;10.33;;;;;;;;;;10239043;28;20212;-76
2021/07/21 03:27:54;;;;;;;20.87;10.60;;;;;;;;;;10254849;28;20580;-77
2021/07/21 03:32:59;;;;;;;19.40;10.57;;;;;;;;;;10254005;28;20637;-76
2021/07/21 03:38:02;;;;;;;21.33;12.27;;;;;;;;;;10249090;28;20223;-75
2021/07/21 03:43:05;;;;;;;19.97;11.33;;;;;;;;;;10248164;28;20231;-75
2021/07/21 03:48:09;;;;;;;19.27;11.27;;;;;;;;;;10249279;28;20355;-75
2021/07/21 03:53:12;;;;;;;19.57;11.10;;;;;;;;;;10240845;28;20252;-75
2021/07/21 03:58:15;;;;;;;20.00;11.07;;;;;;;;;;10255228;28;20522;-77
2021/07/21 04:03:19;;;;;;;19.43;10.97;;;;;;;;;;10238340;28;20611;-76
2021/07/21 04:08:23;;;;;;;19.93;11.40;;;;;;;;;;10239333;28;20192;-76
2021/07/21 04:13:27;;;;;;;19.43;11.07;;;;;;;;;;10221427;28;20981;-76
2021/07/21 04:18:51;;;;;;;20.10;11.17;;;;;;;;;;10233802;28;20717;-76
2021/07/21 04:23:54;;;;;;;19.47;10.70;;;;;;;;;;10240059;28;20295;-76
2021/07/21 04:28:57;;;;;;;17.90;10.90;;;;;;;;;;10242190;28;20675;-78
2021/07/21 04:34:03;;;;;;;18.03;11.07;;;;;;;;;;10238873;28;20311;-76
2021/07/21 04:39:06;;;;;;;19.00;10.53;;;;;;;;;;10231907;28;20662;-77
2021/07/21 04:44:09;;;;;;;18.53;11.17;;;;;;;;;;10253543;28;20204;-78
2021/07/21 04:49:15;;;;;;;22.17;11.10;;;;;;;;;;10241177;28;20224;-77
2021/07/21 04:54:18;;;;;;;22.73;12.20;;;;;;;;;;10246640;28;20307;-76
2021/07/21 04:59:20;;;;;;;19.50;11.53;;;;;;;;;;10245986;28;20686;-75
2021/07/21 05:04:24;;;;;;;20.23;10.90;;;;;;;;;;10245736;28;20299;-76
2021/07/21 05:09:27;;;;;;;21.43;11.70;;;;;;;;;;10247689;28;20283;-75
2021/07/21 05:14:30;;;;;;;18.93;10.80;;;;;;;;;;10254393;28;20290;-77
2021/07/21 05:19:33;;;;;;;18.00;10.23;;;;;;;;;;10250621;28;20248;-75
2021/07/21 05:24:40;;;;;;;17.93;11.07;;;;;;;;;;10246212;28;20773;-77
2021/07/21 05:29:43;;;;;;;18.57;10.73;;;;;;;;;;10248808;28;20270;-72
2021/07/21 05:34:47;;;;;;;19.77;11.03;;;;;;;;;;10239217;28;20314;-71
2021/07/21 05:39:49;;;;;;;19.17;10.87;;;;;;;;;;10245766;28;20196;-72
2021/07/21 05:44:52;;;;;;;20.23;11.20;;;;;;;;;;10250036;28;20214;-73
2021/07/21 05:49:56;;;;;;;19.37;10.83;;;;;;;;;;10252690;28;20208;-72
2021/07/21 05:54:59;;;;;;;18.83;10.23;;;;;;;;;;10243417;28;20291;-72
2021/07/21 06:00:01;;;;;;;21.40;12.33;;;;;;;;;;10254564;28;20196;-72
2021/07/21 06:05:06;;;;;;;19.17;11.10;;;;;;;;;;10241515;28;20232;-72
2021/07/21 06:10:09;;;;;;;17.17;10.43;;;;;;;;;;10245015;28;20201;-73
2021/07/21 06:15:11;;;;;;;19.60;11.10;;;;;;;;;;10255617;28;20216;-71
2021/07/21 06:20:16;;;;;;;17.87;10.67;;;;;;;;;;10246487;28;20200;-72
2021/07/21 06:25:18;;;;;;;18.80;10.97;;;;;;;;;;10245656;28;20235;-73
2021/07/21 06:30:21;;;;;;;18.13;10.73;;;;;;;;;;10251974;28;20232;-73
2021/07/21 06:35:25;;;;;;;18.67;10.40;;;;;;;;;;10257573;28;20342;-73
2021/07/21 06:40:27;;;;;;;17.80;10.53;;;;;;;;;;10238009;28;20280;-73
2021/07/21 06:45:30;;;;;;;20.00;10.33;;;;;;;;;;10245700;28;20208;-73
2021/07/21 06:50:34;;;;;;;17.70;10.07;;;;;;;;;;10250851;28;20216;-72
2021/07/21 06:55:37;;;;;;;16.77;9.73;;;;;;;;;;10247642;28;20224;-71
2021/07/21 07:00:40;;;;;;;17.67;10.03;;;;;;;;;;10249166;28;20284;-73
2021/07/21 07:05:44;;;;;;;15.03;9.40;;;;;;;;;;10236461;28;20312;-72
2021/07/21 07:10:47;;;;;;;17.00;9.10;;;;;;;;;;10244838;28;20676;-72
2021/07/21 07:15:50;;;;;;;16.77;9.47;;;;;;;;;;10253436;28;20308;-72
2021/07/21 07:20:56;;;;;;;14.03;8.20;;;;;;;;;;10243367;28;20196;-73
2021/07/21 07:25:59;;;;;;;12.50;7.23;;;;;;;;;;10240814;28;20212;-73
2021/07/21 07:31:01;;;;;;;13.77;7.80;;;;;;;;;;10244720;28;20283;-73
2021/07/21 07:36:07;;;;;;;15.00;7.77;;;;;;;;;;10252980;28;20323;-72
2021/07/21 07:41:09;;;;;;;13.25;7.35;;;;;;;;;;10246620;28;20275;-73
2021/07/21 07:46:12;;;;;;;14.75;8.70;;;;;;;;;;10245533;28;20216;-72
2021/07/21 07:51:16;;;;;;;14.55;8.18;;;;;;;;;;10250268;28;20236;-73
2021/07/21 07:56:19;;;;;;;13.45;7.80;;;;;;;;;;10241573;28;20259;-70
2021/07/21 08:01:21;;;;;;;12.30;7.97;;;;;;;;;;10249979;28;20204;-73
2021/07/21 08:06:25;;;;;;;11.07;7.57;;;;;;;;;;10233874;28;20212;-72
2021/07/21 08:11:28;;;;;;;11.82;8.20;;;;;;;;;;10250810;28;20226;-73
2021/07/21 08:16:31;;;;;;;11.27;7.95;;;;;;;;;;10248081;28;20278;-73
2021/07/21 08:21:35;;;;;;;11.93;7.90;;;;;;;;;;10248996;28;20189;-73
2021/07/21 08:26:38;;;;;;;13.10;7.75;;;;;;;;;;10235673;28;20218;-72
2021/07/21 08:31:40;;;;;;;11.98;8.77;;;;;;;;;;10248318;28;20193;-73
2021/07/21 08:36:44;;;;;;;11.07;8.05;;;;;;;;;;10246294;28;20543;-74
2021/07/21 08:41:47;;;;;;;11.75;7.70;;;;;;;;;;10251740;28;20194;-73
2021/07/21 08:46:50;;;;;;;12.15;7.32;;;;;;;;;;10253026;28;20657;-74
2021/07/21 08:51:55;;;;;;;11.50;7.72;;;;;;;;;;10240382;28;20520;-74
2021/07/21 08:56:59;;;;;;;13.82;8.30;;;;;;;;;;10246263;28;20551;-74
2021/07/21 09:02:01;;;;;;;10.70;7.63;;;;;;;;;;10245430;28;20191;-73
2021/07/21 09:07:06;;;;;;;10.02;7.07;;;;;;;;;;10231500;28;20191;-73
2021/07/21 09:12:29;;;;;;;11.35;7.05;;;;;;;;;;10254483;28;20223;-74
2021/07/21 09:17:32;;;;;;;10.43;7.93;;;;;;;;;;10245588;28;20645;-74
2021/07/21 09:22:38;;;;;;;13.75;7.68;;;;;;;;;;10245575;28;20227;-74
2021/07/21 09:27:41;;;;;;;10.40;7.82;;;;;;;;;;10245211;28;20188;-74
2021/07/21 09:32:51;;;;;;;9.05;7.68;;;;;;;;;;10253024;28;20511;-73
2021/07/21 09:37:56;;;;;;;10.50;8.07;;;;;;;;;;10259034;28;20247;-73
2021/07/21 09:42:59;;;;;;;10.45;7.90;;;;;;;;;;10257240;28;20214;-74
2021/07/21 09:48:01;;;;;;;11.27;8.25;;;;;;;;;;10258081;28;20239;-74
2021/07/21 09:53:06;;;;;;;10.95;8.13;;;;;;;;;;10255341;28;20215;-73
2021/07/21 09:58:10;;;;;;;11.40;8.93;;;;;;;;;;10245529;28;20783;-73
2021/07/21 10:03:16;;;;;;;10.23;8.52;;;;;;;;;;10248342;28;20211;-73
2021/07/21 10:08:27;;;;;;;11.90;9.10;;;;;;;;;;10244051;28;20212;-74
2021/07/21 10:13:36;;;;;;;10.15;8.02;;;;;;;;;;10250929;28;20223;-74
2021/07/21 10:18:39;;;;;;;11.90;9.45;;;;;;;;;;10251775;28;20203;-73
2021/07/21 10:23:43;;;;;;;10.82;8.65;;;;;;;;;;10254081;28;20295;-73
2021/07/21 10:28:45;;;;;;;12.40;8.68;;;;;;;;;;10250905;28;20743;-74
2021/07/21 10:33:48;;;;;;;11.48;8.85;;;;;;;;;;10254405;28;20219;-73
2021/07/21 10:38:52;;;;;;;11.55;9.15;;;;;;;;;;10254360;28;20311;-74
2021/07/21 10:43:55;;;;;;;13.35;8.90;;;;;;;;;;10250186;28;20306;-73
2021/07/21 10:49:06;;;;;;;13.45;9.00;;;;;;;;;;10247284;28;20194;-73
2021/07/21 10:54:25;;;;;;;11.90;8.82;;;;;;;;;;10251340;28;20247;-73
2021/07/21 10:59:40;;;;;;;12.07;9.25;;;;;;;;;;10247008;28;20806;-71
2021/07/21 11:04:43;;;;;;;10.73;8.63;;;;;;;;;;10239771;28;20211;-73
2021/07/21 11:09:49;;;;;;;11.25;9.23;;;;;;;;;;10245507;28;20206;-73
2021/07/21 11:14:55;;;;;;;12.43;10.18;;;;;;;;;;10249810;28;20257;-73
2021/07/21 11:19:58;;;;;;;12.40;9.90;;;;;;;;;;10243306;28;20239;-74
2021/07/21 11:25:09;;;;;;;12.10;10.07;;;;;;;;;;10260260;28;20223;-72
2021/07/21 11:30:27;;;;;;;12.40;9.77;;;;;;;;;;10239011;28;20188;-74
2021/07/21 11:35:37;;;;;;;10.70;9.32;;;;;;;;;;10251928;28;20227;-73
2021/07/21 11:40:44;;;;;;;11.95;9.68;;;;;;;;;;10251743;28;20307;-74
2021/07/21 11:45:47;;;;;;;11.73;9.43;;;;;;;;;;10252937;28;20624;-72
2021/07/21 11:50:49;;;;;;;13.20;9.10;;;;;;;;;;10245546;28;20694;-71
2021/07/21 11:56:06;;;;;;;14.02;9.18;;;;;;;;;;10237320;28;20216;-72
2021/07/21 12:01:08;;;;;;;12.07;9.50;;;;;;;;;;10246947;28;20598;-71
2021/07/21 12:06:11;;;;;;;12.77;10.05;;;;;;;;;;10246499;28;20263;-73
2021/07/21 12:11:19;;;;;;;15.73;10.45;;;;;;;;;;10247219;28;20195;-72
2021/07/21 12:16:22;;;;;;;13.80;9.48;;;;;;;;;;10247486;28;20232;-72
2021/07/21 12:21:27;;;;;;;12.13;9.38;;;;;;;;;;10248426;28;20192;-71
2021/07/21 12:26:40;;;;;;;12.43;9.05;;;;;;;;;;10252683;28;20649;-72
2021/07/21 12:31:43;;;;;;;12.00;8.88;;;;;;;;;;10232806;28;20278;-73
2021/07/21 12:36:46;;;;;;;12.20;9.00;;;;;;;;;;10244351;28;20204;-73
2021/07/21 12:41:50;;;;;;;12.63;8.88;;;;;;;;;;10254601;28;20196;-73
2021/07/21 12:47:08;;;;;;;12.32;8.80;;;;;;;;;;10251837;28;20222;-73
2021/07/21 12:52:12;;;;;;;11.88;8.55;;;;;;;;;;10241863;28;20699;-72
2021/07/21 12:57:30;;;;;;;13.40;10.20;;;;;;;;;;10244199;28;20208;-72
2021/07/21 13:02:33;;;;;;;10.95;8.68;;;;;;;;;;10243169;28;20648;-73
2021/07/21 13:07:36;;;;;;;13.57;8.70;;;;;;;;;;10240059;28;20237;-72
2021/07/21 13:12:40;;;;;;;12.45;9.80;;;;;;;;;;10254798;28;20670;-72
2021/07/21 13:17:42;;;;;;;11.55;8.18;;;;;;;;;;10244713;28;20212;-71
2021/07/21 13:22:45;;;;;;;11.45;8.52;;;;;;;;;;10256918;28;20677;-73
2021/07/21 13:27:49;;;;;;;12.27;8.70;;;;;;;;;;10254924;28;20622;-73
2021/07/21 13:32:52;;;;;;;14.90;10.73;;;;;;;;;;10258097;28;20345;-73
2021/07/21 13:37:57;;;;;;;11.77;8.80;;;;;;;;;;10259668;28;20752;-73
2021/07/21 13:43:05;;;;;;;12.85;9.10;;;;;;;;;;10253122;28;20613;-73
2021/07/21 13:48:08;;;;;;;11.45;8.55;;;;;;;;;;10254847;28;20279;-72
2021/07/21 13:53:10;;;;;;;12.27;8.77;;;;;;;;;;10241567;28;20303;-71
2021/07/21 13:58:14;;;;;;;11.93;8.65;;;;;;;;;;10257716;28;20643;-74
2021/07/21 14:03:20;;;;;;;13.18;7.93;;;;;;;;;;10244983;28;20307;-72
2021/07/21 14:08:23;;;;;;;11.07;8.07;;;;;;;;;;10248631;28;20274;-72
2021/07/21 14:13:27;;;;;;;11.40;8.02;;;;;;;;;;10262883;28;20333;-73
2021/07/21 14:18:30;;;;;;;11.95;8.27;;;;;;;;;;10264195;28;20216;-72
2021/07/21 14:23:34;;;;;;;11.13;8.18;;;;;;;;;;10248825;28;20263;-72
2021/07/21 14:28:38;;;;;;;13.18;8.25;;;;;;;;;;10255308;28;20283;-72
2021/07/21 14:33:40;;;;;;;13.68;8.48;;;;;;;;;;10249945;28;20314;-72
2021/07/21 14:38:43;;;;;;;11.82;8.57;;;;;;;;;;10249194;28;20200;-72
2021/07/21 14:43:47;;;;;;;11.27;7.55;;;;;;;;;;10253951;28;20649;-71
2021/07/21 14:48:50;;;;;;;11.60;8.13;;;;;;;;;;10261855;28;20208;-73
2021/07/21 14:53:52;;;;;;;13.07;8.98;;;;;;;;;;10248698;28;20279;-73
2021/07/21 14:58:56;;;;;;;12.48;8.10;;;;;;;;;;10252057;28;20303;-72
2021/07/21 15:03:59;;;;;;;14.43;8.82;;;;;;;;;;10244015;28;20216;-72
2021/07/21 15:09:01;;;;;;;12.32;8.32;;;;;;;;;;10252067;28;20205;-73
2021/07/21 15:14:06;;;;;;;13.48;8.77;;;;;;;;;;10247586;28;20296;-71
2021/07/21 15:19:09;;;;;;;12.30;8.00;;;;;;;;;;10242251;28;20607;-72
2021/07/21 15:24:12;;;;;;;11.27;8.07;;;;;;;;;;10247693;28;20232;-70
2021/07/21 15:29:16;;;;;;;12.80;8.60;;;;;;;;;;10239338;28;20263;-71
2021/07/21 15:34:19;;;;;;;14.48;9.90;;;;;;;;;;10242181;28;20673;-72
2021/07/21 15:39:22;;;;;;;13.60;8.65;;;;;;;;;;10237072;28;20213;-73
2021/07/21 15:44:26;;;;;;;14.13;10.73;;;;;;;;;;10250317;28;20231;-74
2021/07/21 15:49:29;;;;;;;14.20;9.52;;;;;;;;;;10254130;28;20890;-72
2021/07/21 15:54:31;;;;;;;13.02;8.63;;;;;;;;;;10240046;28;20213;-72
2021/07/21 15:59:36;;;;;;;13.20;9.50;;;;;;;;;;10244566;28;20247;-72
2021/07/21 16:04:38;;;;;;;13.82;8.88;;;;;;;;;;10239852;28;20296;-72
2021/07/21 16:09:41;;;;;;;13.07;8.80;;;;;;;;;;10243530;28;20223;-73
2021/07/21 16:14:45;;;;;;;12.07;8.23;;;;;;;;;;10243749;28;20220;-72
2021/07/21 16:19:48;;;;;;;13.10;8.77;;;;;;;;;;10238470;28;20213;-72
2021/07/21 16:24:50;;;;;;;14.05;8.80;;;;;;;;;;10248406;28;20299;-73
2021/07/21 16:29:54;;;;;;;12.82;8.40;;;;;;;;;;10243094;28;20290;-72
2021/07/21 16:34:57;;;;;;;13.35;8.60;;;;;;;;;;10236605;28;20209;-72
2021/07/21 16:39:59;;;;;;;13.45;8.82;;;;;;;;;;10246509;28;20200;-73
2021/07/21 16:45:05;;;;;;;13.95;8.73;;;;;;;;;;10249493;28;20694;-72
2021/07/21 16:50:09;;;;;;;12.05;7.78;;;;;;;;;;10254723;28;20219;-72
2021/07/21 16:55:13;;;;;;;15.05;8.68;;;;;;;;;;10246967;28;20331;-72
2021/07/21 17:00:18;;;;;;;14.88;8.93;;;;;;;;;;10241965;28;20282;-72
2021/07/21 17:05:22;;;;;;;13.93;9.15;;;;;;;;;;10236532;28;20298;-70
2021/07/21 17:10:25;;;;;;;13.40;9.13;;;;;;;;;;10264689;28;20200;-70
2021/07/21 17:15:29;;;;;;;12.23;7.82;;;;;;;;;;10247583;28;20308;-71
2021/07/21 17:20:32;;;;;;;13.38;8.63;;;;;;;;;;10241147;28;20204;-72
2021/07/21 17:25:35;;;;;;;13.82;8.70;;;;;;;;;;10237341;28;20338;-72
2021/07/21 17:30:59;;;;;;;13.77;8.43;;;;;;;;;;10244793;28;20640;-72
2021/07/21 17:36:02;;;;;;;13.55;8.65;;;;;;;;;;10247752;28;20394;-72
2021/07/21 17:41:04;;;;;;;13.45;8.20;;;;;;;;;;10244723;28;20255;-72
2021/07/21 17:46:08;;;;;;;12.45;7.85;;;;;;;;;;10246598;28;20311;-72
2021/07/21 17:51:11;;;;;;;12.13;7.85;;;;;;;;;;10258130;28;20564;-73
2021/07/21 17:56:14;;;;;;;14.27;8.32;;;;;;;;;;10257635;28;20378;-72
2021/07/21 18:01:18;;;;;;;13.52;8.20;;;;;;;;;;10248747;28;20204;-73
2021/07/21 18:06:21;;;;;;;12.75;7.95;;;;;;;;;;10258646;28;20227;-72
2021/07/21 18:11:24;;;;;;;12.77;7.68;;;;;;;;;;10252077;28;20555;-71
2021/07/21 18:16:28;;;;;;;12.07;7.60;;;;;;;;;;10253618;28;20230;-74
2021/07/21 18:21:30;;;;;;;13.20;7.53;;;;;;;;;;10247360;28;20692;-72
2021/07/21 18:26:33;;;;;;;16.80;8.90;;;;;;;;;;10250653;28;20208;-72
2021/07/21 18:31:37;;;;;;;13.07;7.50;;;;;;;;;;10253552;28;20180;-74
2021/07/21 18:36:39;;;;;;;14.13;7.68;;;;;;;;;;10253913;28;20221;-72
2021/07/21 18:41:42;;;;;;;14.13;7.95;;;;;;;;;;10263370;28;20231;-75
2021/07/21 18:46:47;;;;;;;13.93;7.70;;;;;;;;;;10251428;28;20209;-72
2021/07/21 18:51:52;;;;;;;13.82;7.70;;;;;;;;;;10249917;28;20581;-72
2021/07/21 18:56:54;;;;;;;13.75;7.53;;;;;;;;;;10253321;28;20276;-73
2021/07/21 19:02:02;;;;;;;13.68;8.50;;;;;;;;;;10245772;28;20306;-73
2021/07/21 19:07:10;;;;;;;15.38;8.73;;;;;;;;;;10248220;28;20200;-72
2021/07/21 19:12:17;;;;;;;16.42;10.52;;;;;;;;;;10246463;28;20688;-72
2021/07/21 19:17:22;;;;;;;13.70;8.27;;;;;;;;;;10246946;28;20200;-73
2021/07/21 19:22:27;;;;;;;12.67;7.30;;;;;;;;;;10244392;28;20216;-74
2021/07/21 19:27:30;;;;;;;13.17;7.10;;;;;;;;;;10253121;28;20188;-73
2021/07/21 19:32:35;;;;;;;15.90;7.97;;;;;;;;;;10247047;28;20268;-72
2021/07/21 19:37:38;;;;;;;21.47;14.30;;;;;;;;;;10263176;28;20204;-70
2021/07/21 19:42:41;;;;;;;18.60;12.33;;;;;;;;;;10245340;28;20279;-73
2021/07/21 19:47:45;;;;;;;34.27;23.50;;;;;;;;;;10253347;28;20294;-73
2021/07/21 19:52:48;;;;;;;16.37;10.03;;;;;;;;;;10252999;28;20212;-73
2021/07/21 19:57:51;;;;;;;18.13;9.40;;;;;;;;;;10244304;28;20228;-73
2021/07/21 20:02:55;;;;;;;14.87;9.33;;;;;;;;;;10250331;28;20225;-72
2021/07/21 20:07:58;;;;;;;13.53;7.57;;;;;;;;;;10233856;28;20219;-73
2021/07/21 20:13:00;;;;;;;17.93;11.80;;;;;;;;;;10235693;28;20354;-73
2021/07/21 20:18:05;;;;;;;14.87;9.77;;;;;;;;;;10236311;28;20267;-72
2021/07/21 20:23:08;;;;;;;14.33;8.20;;;;;;;;;;10238723;28;20300;-71
2021/07/21 20:28:10;;;;;;;18.10;11.23;;;;;;;;;;10244627;28;20199;-73
2021/07/21 20:33:14;;;;;;;14.73;8.43;;;;;;;;;;10237899;28;20235;-72
2021/07/21 20:38:17;;;;;;;12.40;7.67;;;;;;;;;;10246571;28;20296;-73
2021/07/21 20:43:20;;;;;;;13.40;7.30;;;;;;;;;;10234548;28;20758;-73
2021/07/21 20:48:24;;;;;;;12.47;7.43;;;;;;;;;;10257954;28;20203;-73
2021/07/21 20:53:26;;;;;;;14.90;8.10;;;;;;;;;;10246097;28;21065;-72
2021/07/21 20:58:29;;;;;;;14.03;7.90;;;;;;;;;;10245029;28;20200;-71
2021/07/21 21:03:33;;;;;;;13.37;7.57;;;;;;;;;;10245942;28;20220;-73
2021/07/21 21:08:36;;;;;;;12.97;7.17;;;;;;;;;;10244758;28;20279;-72
2021/07/21 21:13:39;;;;;;;12.70;7.03;;;;;;;;;;10246679;28;20223;-72
2021/07/21 21:18:43;;;;;;;13.70;7.20;;;;;;;;;;10241281;28;20256;-73
2021/07/21 21:23:46;;;;;;;13.63;7.03;;;;;;;;;;10240158;28;20304;-73
2021/07/21 21:28:48;;;;;;;12.73;7.47;;;;;;;;;;10249448;28;20196;-74
2021/07/21 21:33:53;;;;;;;13.00;7.20;;;;;;;;;;10240735;28;20230;-74
2021/07/21 21:38:57;;;;;;;13.10;6.97;;;;;;;;;;10242245;28;20237;-74
2021/07/21 21:43:59;;;;;;;13.13;6.67;;;;;;;;;;10262722;28;20533;-73
2021/07/21 21:49:03;;;;;;;12.03;7.30;;;;;;;;;;10250710;28;20231;-73
2021/07/21 21:54:06;;;;;;;12.37;6.73;;;;;;;;;;10250893;28;20243;-71
2021/07/21 21:59:08;;;;;;;15.07;8.20;;;;;;;;;;10249486;28;20204;-72
2021/07/21 22:04:12;;;;;;;13.93;7.17;;;;;;;;;;10245337;28;20751;-73
2021/07/21 22:09:15;;;;;;;12.00;6.73;;;;;;;;;;10246177;28;20199;-72
2021/07/21 22:14:20;;;;;;;13.20;7.17;;;;;;;;;;10255158;28;20232;-73
2021/07/21 22:19:27;;;;;;;13.33;7.97;;;;;;;;;;10249441;28;20458;-72
2021/07/21 22:24:30;;;;;;;12.07;6.97;;;;;;;;;;10243585;28;20227;-72
2021/07/21 22:29:32;;;;;;;12.90;7.00;;;;;;;;;;10246913;28;20220;-73
2021/07/21 22:34:36;;;;;;;12.60;7.03;;;;;;;;;;10248457;28;20629;-73
2021/07/21 22:39:39;;;;;;;12.73;7.80;;;;;;;;;;10249596;28;20213;-72
2021/07/21 22:44:41;;;;;;;12.13;7.37;;;;;;;;;;10243609;28;20718;-72
2021/07/21 22:49:45;;;;;;;14.93;7.90;;;;;;;;;;10250909;28;20196;-72
2021/07/21 22:54:49;;;;;;;12.03;7.00;;;;;;;;;;10244764;28;20844;-72
2021/07/21 22:59:56;;;;;;;12.17;6.77;;;;;;;;;;10254089;28;20223;-72
2021/07/21 23:05:18;;;;;;;12.50;6.97;;;;;;;;;;10231100;28;20274;-73
2021/07/21 23:10:39;;;;;;;14.90;7.20;;;;;;;;;;10262782;28;20233;-72
2021/07/21 23:15:47;;;;;;;13.47;7.90;;;;;;;;;;10252874;28;20322;-72
2021/07/21 23:20:51;;;;;;;13.07;7.17;;;;;;;;;;10250254;28;20794;-72
2021/07/21 23:25:53;;;;;;;13.53;7.83;;;;;;;;;;10256096;28;20212;-72
2021/07/21 23:30:58;;;;;;;13.13;7.43;;;;;;;;;;10239168;28;20206;-72
2021/07/21 23:36:03;;;;;;;14.67;7.87;;;;;;;;;;10248751;28;20217;-73
2021/07/21 23:41:05;;;;;;;14.07;7.20;;;;;;;;;;10252922;28;20212;-74
2021/07/21 23:46:09;;;;;;;14.23;7.17;;;;;;;;;;10249954;28;20695;-73
2021/07/21 23:51:12;;;;;;;12.63;7.50;;;;;;;;;;10247769;28;20211;-73
2021/07/21 23:56:15;;;;;;;13.70;7.27;;;;;;;;;;10247740;28;20220;-73
